sensor_id;sensor_type;location;lat;lon;timestamp;P1;durP1;ratioP1;P2;durP2;ratioP2
7661;SDS011;30314;48.184;11.510;2023-07-02T00:02:18;4.40;;;2.40;;
7661;SDS011;30314;48.184;11.510;2023-07-02T00:04:46;2.80;;;2.13;;
7661;SDS011;30314;48.184;11.510;2023-07-02T00:07:14;3.67;;;2.10;;
7661;SDS011;30314;48.184;11.510;2023-07-02T00:09:41;3.60;;;2.20;;
7661;SDS011;30314;48.184;11.510;2023-07-02T00:12:08;6.93;;;2.30;;
7661;SDS011;30314;48.184;11.510;2023-07-02T00:14:34;2.37;;;1.93;;
7661;SDS011;30314;48.184;11.510;2023-07-02T00:17:01;3.13;;;2.43;;
7661;SDS011;30314;48.184;11.510;2023-07-02T00:19:28;5.60;;;2.40;;
7661;SDS011;30314;48.184;11.510;2023-07-02T00:21:54;2.93;;;1.90;;
7661;SDS011;30314;48.184;11.510;2023-07-02T00:24:21;2.43;;;1.93;;
7661;SDS011;30314;48.184;11.510;2023-07-02T00:26:48;2.93;;;2.00;;
7661;SDS011;30314;48.184;11.510;2023-07-02T00:29:15;2.87;;;2.33;;
7661;SDS011;30314;48.184;11.510;2023-07-02T00:31:41;6.30;;;2.47;;
7661;SDS011;30314;48.184;11.510;2023-07-02T00:34:08;3.37;;;2.20;;
7661;SDS011;30314;48.184;11.510;2023-07-02T00:36:34;3.20;;;2.23;;
7661;SDS011;30314;48.184;11.510;2023-07-02T00:39:01;2.53;;;2.27;;
7661;SDS011;30314;48.184;11.510;2023-07-02T00:41:28;3.13;;;1.60;;
7661;SDS011;30314;48.184;11.510;2023-07-02T00:43:55;3.80;;;2.03;;
7661;SDS011;30314;48.184;11.510;2023-07-02T00:46:22;5.23;;;1.60;;
7661;SDS011;30314;48.184;11.510;2023-07-02T00:48:53;5.93;;;2.30;;
7661;SDS011;30314;48.184;11.510;2023-07-02T00:53:49;3.50;;;1.70;;
7661;SDS011;30314;48.184;11.510;2023-07-02T00:56:17;2.30;;;1.73;;
7661;SDS011;30314;48.184;11.510;2023-07-02T00:58:46;2.43;;;1.90;;
7661;SDS011;30314;48.184;11.510;2023-07-02T01:01:17;6.20;;;1.80;;
7661;SDS011;30314;48.184;11.510;2023-07-02T01:03:52;3.43;;;2.37;;
7661;SDS011;30314;48.184;11.510;2023-07-02T01:06:26;4.43;;;1.70;;
7661;SDS011;30314;48.184;11.510;2023-07-02T01:09:04;2.03;;;1.57;;
7661;SDS011;30314;48.184;11.510;2023-07-02T01:11:42;2.40;;;1.60;;
7661;SDS011;30314;48.184;11.510;2023-07-02T01:14:15;2.17;;;1.37;;
7661;SDS011;30314;48.184;11.510;2023-07-02T01:16:48;1.50;;;1.20;;
7661;SDS011;30314;48.184;11.510;2023-07-02T01:22:10;2.43;;;1.17;;
7661;SDS011;30314;48.184;11.510;2023-07-02T01:24:38;3.63;;;1.07;;
7661;SDS011;30314;48.184;11.510;2023-07-02T01:27:05;1.43;;;0.90;;
7661;SDS011;30314;48.184;11.510;2023-07-02T01:29:33;1.80;;;1.37;;
7661;SDS011;30314;48.184;11.510;2023-07-02T01:32:03;1.53;;;1.07;;
7661;SDS011;30314;48.184;11.510;2023-07-02T01:34:30;3.03;;;1.10;;
7661;SDS011;30314;48.184;11.510;2023-07-02T01:36:57;1.60;;;1.50;;
7661;SDS011;30314;48.184;11.510;2023-07-02T01:39:23;1.80;;;1.20;;
7661;SDS011;30314;48.184;11.510;2023-07-02T01:41:51;2.10;;;1.13;;
7661;SDS011;30314;48.184;11.510;2023-07-02T01:44:19;1.30;;;0.90;;
7661;SDS011;30314;48.184;11.510;2023-07-02T01:46:47;2.00;;;1.20;;
7661;SDS011;30314;48.184;11.510;2023-07-02T01:49:16;1.70;;;1.37;;
7661;SDS011;30314;48.184;11.510;2023-07-02T01:51:52;2.93;;;1.30;;
7661;SDS011;30314;48.184;11.510;2023-07-02T01:54:21;2.50;;;1.50;;
7661;SDS011;30314;48.184;11.510;2023-07-02T01:56:50;4.77;;;1.40;;
7661;SDS011;30314;48.184;11.510;2023-07-02T01:59:16;1.40;;;0.90;;
7661;SDS011;30314;48.184;11.510;2023-07-02T02:01:43;3.33;;;1.33;;
7661;SDS011;30314;48.184;11.510;2023-07-02T02:04:10;1.57;;;1.27;;
7661;SDS011;30314;48.184;11.510;2023-07-02T02:06:38;2.30;;;1.43;;
7661;SDS011;30314;48.184;11.510;2023-07-02T02:09:05;2.50;;;1.40;;
7661;SDS011;30314;48.184;11.510;2023-07-02T02:11:33;2.00;;;1.37;;
7661;SDS011;30314;48.184;11.510;2023-07-02T02:14:01;1.87;;;1.20;;
7661;SDS011;30314;48.184;11.510;2023-07-02T02:16:28;3.33;;;0.80;;
7661;SDS011;30314;48.184;11.510;2023-07-02T02:18:55;2.53;;;1.33;;
7661;SDS011;30314;48.184;11.510;2023-07-02T02:21:22;1.77;;;1.17;;
7661;SDS011;30314;48.184;11.510;2023-07-02T02:23:48;3.00;;;1.00;;
7661;SDS011;30314;48.184;11.510;2023-07-02T02:26:15;4.13;;;1.33;;
7661;SDS011;30314;48.184;11.510;2023-07-02T02:28:42;2.47;;;1.37;;
7661;SDS011;30314;48.184;11.510;2023-07-02T02:31:09;3.20;;;1.60;;
7661;SDS011;30314;48.184;11.510;2023-07-02T02:33:36;1.63;;;1.23;;
7661;SDS011;30314;48.184;11.510;2023-07-02T02:36:03;2.60;;;1.20;;
7661;SDS011;30314;48.184;11.510;2023-07-02T02:38:31;3.47;;;1.53;;
7661;SDS011;30314;48.184;11.510;2023-07-02T02:40:59;3.20;;;1.60;;
7661;SDS011;30314;48.184;11.510;2023-07-02T02:43:31;1.90;;;1.47;;
7661;SDS011;30314;48.184;11.510;2023-07-02T02:45:58;1.83;;;1.10;;
7661;SDS011;30314;48.184;11.510;2023-07-02T02:48:26;3.27;;;1.60;;
7661;SDS011;30314;48.184;11.510;2023-07-02T02:50:53;2.30;;;1.90;;
7661;SDS011;30314;48.184;11.510;2023-07-02T02:53:19;1.30;;;0.90;;
7661;SDS011;30314;48.184;11.510;2023-07-02T02:55:46;1.70;;;1.33;;
7661;SDS011;30314;48.184;11.510;2023-07-02T02:58:12;1.90;;;1.20;;
7661;SDS011;30314;48.184;11.510;2023-07-02T03:00:39;5.40;;;1.70;;
7661;SDS011;30314;48.184;11.510;2023-07-02T03:03:08;2.90;;;1.40;;
7661;SDS011;30314;48.184;11.510;2023-07-02T03:05:35;1.40;;;1.27;;
7661;SDS011;30314;48.184;11.510;2023-07-02T03:08:02;3.23;;;2.00;;
7661;SDS011;30314;48.184;11.510;2023-07-02T03:10:29;1.60;;;1.30;;
7661;SDS011;30314;48.184;11.510;2023-07-02T03:12:55;1.70;;;1.40;;
7661;SDS011;30314;48.184;11.510;2023-07-02T03:15:22;6.37;;;2.33;;
7661;SDS011;30314;48.184;11.510;2023-07-02T03:17:49;4.70;;;2.07;;
7661;SDS011;30314;48.184;11.510;2023-07-02T03:20:15;4.30;;;1.90;;
7661;SDS011;30314;48.184;11.510;2023-07-02T03:22:43;3.50;;;1.70;;
7661;SDS011;30314;48.184;11.510;2023-07-02T03:25:09;2.60;;;1.73;;
7661;SDS011;30314;48.184;11.510;2023-07-02T03:27:36;3.20;;;2.13;;
7661;SDS011;30314;48.184;11.510;2023-07-02T03:30:03;6.03;;;1.80;;
7661;SDS011;30314;48.184;11.510;2023-07-02T03:32:30;5.43;;;1.80;;
7661;SDS011;30314;48.184;11.510;2023-07-02T03:34:57;4.57;;;1.90;;
7661;SDS011;30314;48.184;11.510;2023-07-02T03:37:24;4.63;;;2.20;;
7661;SDS011;30314;48.184;11.510;2023-07-02T03:39:50;3.90;;;2.23;;
7661;SDS011;30314;48.184;11.510;2023-07-02T03:42:17;3.47;;;2.07;;
7661;SDS011;30314;48.184;11.510;2023-07-02T03:44:43;3.17;;;2.20;;
7661;SDS011;30314;48.184;11.510;2023-07-02T03:47:10;3.47;;;2.10;;
7661;SDS011;30314;48.184;11.510;2023-07-02T03:49:38;6.20;;;2.27;;
7661;SDS011;30314;48.184;11.510;2023-07-02T03:52:05;3.43;;;2.70;;
7661;SDS011;30314;48.184;11.510;2023-07-02T03:54:32;7.40;;;2.30;;
7661;SDS011;30314;48.184;11.510;2023-07-02T03:56:58;3.23;;;2.40;;
7661;SDS011;30314;48.184;11.510;2023-07-02T03:59:25;4.17;;;2.50;;
7661;SDS011;30314;48.184;11.510;2023-07-02T04:01:51;3.63;;;1.93;;
7661;SDS011;30314;48.184;11.510;2023-07-02T04:04:18;5.10;;;2.77;;
7661;SDS011;30314;48.184;11.510;2023-07-02T04:06:45;3.40;;;2.33;;
7661;SDS011;30314;48.184;11.510;2023-07-02T04:09:12;5.20;;;1.83;;
7661;SDS011;30314;48.184;11.510;2023-07-02T04:11:39;3.43;;;2.50;;
7661;SDS011;30314;48.184;11.510;2023-07-02T04:14:05;3.00;;;2.60;;
7661;SDS011;30314;48.184;11.510;2023-07-02T04:16:32;5.20;;;2.40;;
7661;SDS011;30314;48.184;11.510;2023-07-02T04:18:58;5.57;;;2.40;;
7661;SDS011;30314;48.184;11.510;2023-07-02T04:21:25;3.83;;;2.20;;
7661;SDS011;30314;48.184;11.510;2023-07-02T04:23:52;4.03;;;2.23;;
7661;SDS011;30314;48.184;11.510;2023-07-02T04:26:19;4.43;;;2.57;;
7661;SDS011;30314;48.184;11.510;2023-07-02T04:29:05;4.13;;;2.60;;
7661;SDS011;30314;48.184;11.510;2023-07-02T04:31:32;11.53;;;3.47;;
7661;SDS011;30314;48.184;11.510;2023-07-02T04:33:58;5.30;;;2.40;;
7661;SDS011;30314;48.184;11.510;2023-07-02T04:36:25;5.60;;;2.90;;
7661;SDS011;30314;48.184;11.510;2023-07-02T04:38:54;4.47;;;2.70;;
7661;SDS011;30314;48.184;11.510;2023-07-02T04:41:21;6.20;;;2.80;;
7661;SDS011;30314;48.184;11.510;2023-07-02T04:43:47;3.30;;;2.63;;
7661;SDS011;30314;48.184;11.510;2023-07-02T04:46:14;5.30;;;2.50;;
7661;SDS011;30314;48.184;11.510;2023-07-02T04:48:41;3.93;;;2.90;;
7661;SDS011;30314;48.184;11.510;2023-07-02T04:51:08;5.50;;;2.87;;
7661;SDS011;30314;48.184;11.510;2023-07-02T04:53:34;3.43;;;2.70;;
7661;SDS011;30314;48.184;11.510;2023-07-02T04:56:01;4.23;;;2.67;;
7661;SDS011;30314;48.184;11.510;2023-07-02T04:58:27;3.30;;;2.90;;
7661;SDS011;30314;48.184;11.510;2023-07-02T05:00:54;3.63;;;2.70;;
7661;SDS011;30314;48.184;11.510;2023-07-02T05:03:21;4.17;;;2.10;;
7661;SDS011;30314;48.184;11.510;2023-07-02T05:05:47;4.57;;;2.40;;
7661;SDS011;30314;48.184;11.510;2023-07-02T05:08:14;3.70;;;2.53;;
7661;SDS011;30314;48.184;11.510;2023-07-02T05:10:41;4.43;;;2.67;;
7661;SDS011;30314;48.184;11.510;2023-07-02T05:13:07;7.50;;;3.00;;
7661;SDS011;30314;48.184;11.510;2023-07-02T05:15:34;4.47;;;2.63;;
7661;SDS011;30314;48.184;11.510;2023-07-02T05:18:00;5.63;;;3.20;;
7661;SDS011;30314;48.184;11.510;2023-07-02T05:20:27;3.60;;;2.53;;
7661;SDS011;30314;48.184;11.510;2023-07-02T05:22:54;3.80;;;2.90;;
7661;SDS011;30314;48.184;11.510;2023-07-02T05:25:20;4.00;;;2.67;;
7661;SDS011;30314;48.184;11.510;2023-07-02T05:27:47;6.73;;;3.10;;
7661;SDS011;30314;48.184;11.510;2023-07-02T05:30:14;5.50;;;3.50;;
7661;SDS011;30314;48.184;11.510;2023-07-02T05:32:42;4.40;;;2.90;;
7661;SDS011;30314;48.184;11.510;2023-07-02T05:35:08;4.23;;;2.97;;
7661;SDS011;30314;48.184;11.510;2023-07-02T05:37:35;2.90;;;2.27;;
7661;SDS011;30314;48.184;11.510;2023-07-02T05:40:01;3.97;;;2.63;;
7661;SDS011;30314;48.184;11.510;2023-07-02T05:42:29;5.00;;;2.70;;
7661;SDS011;30314;48.184;11.510;2023-07-02T05:44:55;5.47;;;2.90;;
7661;SDS011;30314;48.184;11.510;2023-07-02T05:47:22;4.73;;;3.10;;
7661;SDS011;30314;48.184;11.510;2023-07-02T05:49:49;4.00;;;2.73;;
7661;SDS011;30314;48.184;11.510;2023-07-02T05:52:15;3.53;;;2.40;;
7661;SDS011;30314;48.184;11.510;2023-07-02T05:54:42;3.30;;;2.90;;
7661;SDS011;30314;48.184;11.510;2023-07-02T05:57:08;5.70;;;2.83;;
7661;SDS011;30314;48.184;11.510;2023-07-02T05:59:35;4.83;;;2.90;;
7661;SDS011;30314;48.184;11.510;2023-07-02T06:02:01;5.87;;;3.30;;
7661;SDS011;30314;48.184;11.510;2023-07-02T06:04:28;3.50;;;2.70;;
7661;SDS011;30314;48.184;11.510;2023-07-02T06:06:55;3.73;;;2.30;;
7661;SDS011;30314;48.184;11.510;2023-07-02T06:09:21;7.20;;;3.20;;
7661;SDS011;30314;48.184;11.510;2023-07-02T06:11:48;4.73;;;2.73;;
7661;SDS011;30314;48.184;11.510;2023-07-02T06:14:15;3.00;;;2.70;;
7661;SDS011;30314;48.184;11.510;2023-07-02T06:16:41;6.20;;;2.87;;
7661;SDS011;30314;48.184;11.510;2023-07-02T06:19:08;7.27;;;2.80;;
7661;SDS011;30314;48.184;11.510;2023-07-02T06:21:36;4.47;;;2.93;;
7661;SDS011;30314;48.184;11.510;2023-07-02T06:24:03;5.83;;;2.83;;
7661;SDS011;30314;48.184;11.510;2023-07-02T06:26:30;8.40;;;3.57;;
7661;SDS011;30314;48.184;11.510;2023-07-02T06:28:57;4.30;;;2.90;;
7661;SDS011;30314;48.184;11.510;2023-07-02T06:31:24;4.00;;;2.87;;
7661;SDS011;30314;48.184;11.510;2023-07-02T06:33:51;5.83;;;3.13;;
7661;SDS011;30314;48.184;11.510;2023-07-02T06:36:18;4.80;;;2.40;;
7661;SDS011;30314;48.184;11.510;2023-07-02T06:38:45;7.73;;;2.90;;
7661;SDS011;30314;48.184;11.510;2023-07-02T06:41:12;6.80;;;3.57;;
7661;SDS011;30314;48.184;11.510;2023-07-02T06:43:39;4.50;;;2.97;;
7661;SDS011;30314;48.184;11.510;2023-07-02T06:46:09;5.00;;;3.20;;
7661;SDS011;30314;48.184;11.510;2023-07-02T06:48:39;5.70;;;2.97;;
7661;SDS011;30314;48.184;11.510;2023-07-02T06:51:05;3.40;;;3.10;;
7661;SDS011;30314;48.184;11.510;2023-07-02T06:53:33;6.00;;;2.10;;
7661;SDS011;30314;48.184;11.510;2023-07-02T06:56:00;3.07;;;2.07;;
7661;SDS011;30314;48.184;11.510;2023-07-02T06:58:27;7.77;;;3.13;;
7661;SDS011;30314;48.184;11.510;2023-07-02T07:00:53;3.60;;;2.80;;
7661;SDS011;30314;48.184;11.510;2023-07-02T07:03:20;6.53;;;2.90;;
7661;SDS011;30314;48.184;11.510;2023-07-02T07:05:46;4.37;;;2.97;;
7661;SDS011;30314;48.184;11.510;2023-07-02T07:08:13;6.00;;;2.77;;
7661;SDS011;30314;48.184;11.510;2023-07-02T07:10:40;5.37;;;3.23;;
7661;SDS011;30314;48.184;11.510;2023-07-02T07:13:06;4.40;;;3.10;;
7661;SDS011;30314;48.184;11.510;2023-07-02T07:15:36;12.10;;;3.90;;
7661;SDS011;30314;48.184;11.510;2023-07-02T07:18:03;7.03;;;3.43;;
7661;SDS011;30314;48.184;11.510;2023-07-02T07:20:31;4.60;;;2.73;;
7661;SDS011;30314;48.184;11.510;2023-07-02T07:22:57;6.90;;;3.40;;
7661;SDS011;30314;48.184;11.510;2023-07-02T07:25:24;5.50;;;2.90;;
7661;SDS011;30314;48.184;11.510;2023-07-02T07:27:51;5.00;;;3.13;;
7661;SDS011;30314;48.184;11.510;2023-07-02T07:30:19;4.30;;;2.97;;
7661;SDS011;30314;48.184;11.510;2023-07-02T07:32:50;3.67;;;3.20;;
7661;SDS011;30314;48.184;11.510;2023-07-02T07:35:18;6.03;;;3.50;;
7661;SDS011;30314;48.184;11.510;2023-07-02T07:37:47;5.67;;;3.60;;
7661;SDS011;30314;48.184;11.510;2023-07-02T07:40:14;5.77;;;3.67;;
7661;SDS011;30314;48.184;11.510;2023-07-02T07:42:41;6.63;;;3.80;;
7661;SDS011;30314;48.184;11.510;2023-07-02T07:45:09;4.13;;;2.67;;
7661;SDS011;30314;48.184;11.510;2023-07-02T07:47:37;6.00;;;3.37;;
7661;SDS011;30314;48.184;11.510;2023-07-02T07:50:04;6.27;;;3.47;;
7661;SDS011;30314;48.184;11.510;2023-07-02T07:52:39;6.53;;;3.33;;
7661;SDS011;30314;48.184;11.510;2023-07-02T07:55:07;3.77;;;3.23;;
7661;SDS011;30314;48.184;11.510;2023-07-02T07:57:35;3.97;;;3.53;;
7661;SDS011;30314;48.184;11.510;2023-07-02T08:00:03;10.13;;;3.50;;
7661;SDS011;30314;48.184;11.510;2023-07-02T08:02:41;5.03;;;3.30;;
7661;SDS011;30314;48.184;11.510;2023-07-02T08:05:08;6.30;;;3.70;;
7661;SDS011;30314;48.184;11.510;2023-07-02T08:07:36;8.53;;;3.93;;
7661;SDS011;30314;48.184;11.510;2023-07-02T08:10:02;6.03;;;4.17;;
7661;SDS011;30314;48.184;11.510;2023-07-02T08:12:29;4.93;;;3.70;;
7661;SDS011;30314;48.184;11.510;2023-07-02T08:14:56;8.53;;;4.53;;
7661;SDS011;30314;48.184;11.510;2023-07-02T08:17:23;9.10;;;3.00;;
7661;SDS011;30314;48.184;11.510;2023-07-02T08:19:49;3.80;;;3.00;;
7661;SDS011;30314;48.184;11.510;2023-07-02T08:22:16;5.77;;;4.17;;
7661;SDS011;30314;48.184;11.510;2023-07-02T08:24:43;4.20;;;2.87;;
7661;SDS011;30314;48.184;11.510;2023-07-02T08:27:09;4.67;;;3.50;;
7661;SDS011;30314;48.184;11.510;2023-07-02T08:29:41;4.93;;;3.47;;
7661;SDS011;30314;48.184;11.510;2023-07-02T08:32:07;6.23;;;3.17;;
7661;SDS011;30314;48.184;11.510;2023-07-02T08:34:34;3.90;;;2.83;;
7661;SDS011;30314;48.184;11.510;2023-07-02T08:37:00;8.13;;;3.30;;
7661;SDS011;30314;48.184;11.510;2023-07-02T08:39:27;6.90;;;2.90;;
7661;SDS011;30314;48.184;11.510;2023-07-02T08:41:54;2.93;;;2.43;;
7661;SDS011;30314;48.184;11.510;2023-07-02T08:44:21;2.97;;;2.57;;
7661;SDS011;30314;48.184;11.510;2023-07-02T08:46:48;4.33;;;2.57;;
7661;SDS011;30314;48.184;11.510;2023-07-02T08:49:17;3.40;;;2.60;;
7661;SDS011;30314;48.184;11.510;2023-07-02T08:51:44;4.83;;;2.20;;
7661;SDS011;30314;48.184;11.510;2023-07-02T08:54:12;4.93;;;2.43;;
7661;SDS011;30314;48.184;11.510;2023-07-02T08:56:40;3.33;;;2.20;;
7661;SDS011;30314;48.184;11.510;2023-07-02T08:59:08;3.07;;;2.50;;
7661;SDS011;30314;48.184;11.510;2023-07-02T09:01:51;4.20;;;2.43;;
7661;SDS011;30314;48.184;11.510;2023-07-02T09:04:22;4.90;;;3.07;;
7661;SDS011;30314;48.184;11.510;2023-07-02T09:07:03;3.10;;;2.60;;
7661;SDS011;30314;48.184;11.510;2023-07-02T09:09:30;3.50;;;2.80;;
7661;SDS011;30314;48.184;11.510;2023-07-02T09:11:57;3.40;;;3.00;;
7661;SDS011;30314;48.184;11.510;2023-07-02T09:14:28;5.67;;;3.70;;
7661;SDS011;30314;48.184;11.510;2023-07-02T09:19:36;3.67;;;2.60;;
7661;SDS011;30314;48.184;11.510;2023-07-02T09:22:03;2.70;;;2.50;;
7661;SDS011;30314;48.184;11.510;2023-07-02T09:24:30;5.73;;;3.10;;
7661;SDS011;30314;48.184;11.510;2023-07-02T09:26:58;4.20;;;2.87;;
7661;SDS011;30314;48.184;11.510;2023-07-02T09:29:27;3.90;;;3.10;;
7661;SDS011;30314;48.184;11.510;2023-07-02T09:31:58;5.40;;;3.17;;
7661;SDS011;30314;48.184;11.510;2023-07-02T09:34:34;3.70;;;2.70;;
7661;SDS011;30314;48.184;11.510;2023-07-02T09:37:03;4.33;;;2.90;;
7661;SDS011;30314;48.184;11.510;2023-07-02T09:39:34;5.57;;;3.20;;
7661;SDS011;30314;48.184;11.510;2023-07-02T09:42:02;3.40;;;3.07;;
7661;SDS011;30314;48.184;11.510;2023-07-02T09:44:33;3.40;;;2.80;;
7661;SDS011;30314;48.184;11.510;2023-07-02T09:47:04;5.23;;;2.97;;
7661;SDS011;30314;48.184;11.510;2023-07-02T09:49:40;4.70;;;3.23;;
7661;SDS011;30314;48.184;11.510;2023-07-02T09:52:09;4.27;;;2.93;;
7661;SDS011;30314;48.184;11.510;2023-07-02T09:54:37;3.30;;;2.63;;
7661;SDS011;30314;48.184;11.510;2023-07-02T09:57:05;3.57;;;3.27;;
7661;SDS011;30314;48.184;11.510;2023-07-02T09:59:33;5.67;;;3.77;;
7661;SDS011;30314;48.184;11.510;2023-07-02T10:02:00;3.97;;;3.10;;
7661;SDS011;30314;48.184;11.510;2023-07-02T10:04:27;3.70;;;3.10;;
7661;SDS011;30314;48.184;11.510;2023-07-02T10:06:55;4.27;;;3.70;;
7661;SDS011;30314;48.184;11.510;2023-07-02T10:09:36;5.73;;;3.80;;
7661;SDS011;30314;48.184;11.510;2023-07-02T10:12:16;6.73;;;3.20;;
7661;SDS011;30314;48.184;11.510;2023-07-02T10:14:44;4.37;;;3.10;;
7661;SDS011;30314;48.184;11.510;2023-07-02T10:17:22;15.53;;;4.43;;
7661;SDS011;30314;48.184;11.510;2023-07-02T10:19:52;6.00;;;3.83;;
7661;SDS011;30314;48.184;11.510;2023-07-02T10:22:19;5.00;;;3.27;;
7661;SDS011;30314;48.184;11.510;2023-07-02T10:24:50;6.60;;;4.10;;
7661;SDS011;30314;48.184;11.510;2023-07-02T10:27:36;5.67;;;3.70;;
7661;SDS011;30314;48.184;11.510;2023-07-02T10:30:07;7.77;;;4.63;;
7661;SDS011;30314;48.184;11.510;2023-07-02T10:32:37;9.20;;;4.27;;
7661;SDS011;30314;48.184;11.510;2023-07-02T10:37:44;9.60;;;4.60;;
7661;SDS011;30314;48.184;11.510;2023-07-02T10:40:11;7.30;;;3.97;;
7661;SDS011;30314;48.184;11.510;2023-07-02T10:42:51;4.90;;;3.80;;
7661;SDS011;30314;48.184;11.510;2023-07-02T10:45:19;8.43;;;4.40;;
7661;SDS011;30314;48.184;11.510;2023-07-02T10:47:47;5.70;;;4.63;;
7661;SDS011;30314;48.184;11.510;2023-07-02T10:52:44;6.13;;;4.10;;
7661;SDS011;30314;48.184;11.510;2023-07-02T10:55:21;9.07;;;5.10;;
7661;SDS011;30314;48.184;11.510;2023-07-02T10:57:50;8.77;;;5.10;;
7661;SDS011;30314;48.184;11.510;2023-07-02T11:00:28;8.90;;;4.50;;
7661;SDS011;30314;48.184;11.510;2023-07-02T11:02:55;6.03;;;4.60;;
7661;SDS011;30314;48.184;11.510;2023-07-02T11:05:22;14.20;;;6.07;;
7661;SDS011;30314;48.184;11.510;2023-07-02T11:07:49;8.87;;;5.00;;
7661;SDS011;30314;48.184;11.510;2023-07-02T11:10:23;8.17;;;4.93;;
7661;SDS011;30314;48.184;11.510;2023-07-02T11:12:50;7.00;;;5.00;;
7661;SDS011;30314;48.184;11.510;2023-07-02T11:15:17;7.17;;;4.40;;
7661;SDS011;30314;48.184;11.510;2023-07-02T11:17:44;10.40;;;4.80;;
7661;SDS011;30314;48.184;11.510;2023-07-02T11:20:12;9.10;;;5.67;;
7661;SDS011;30314;48.184;11.510;2023-07-02T11:22:40;11.87;;;6.00;;
7661;SDS011;30314;48.184;11.510;2023-07-02T11:25:17;9.27;;;5.80;;
7661;SDS011;30314;48.184;11.510;2023-07-02T11:27:46;8.73;;;5.67;;
7661;SDS011;30314;48.184;11.510;2023-07-02T11:30:13;10.57;;;6.67;;
7661;SDS011;30314;48.184;11.510;2023-07-02T11:32:50;7.53;;;5.70;;
7661;SDS011;30314;48.184;11.510;2023-07-02T11:35:18;12.97;;;6.20;;
7661;SDS011;30314;48.184;11.510;2023-07-02T11:37:46;12.73;;;7.10;;
7661;SDS011;30314;48.184;11.510;2023-07-02T11:40:16;17.23;;;8.00;;
7661;SDS011;30314;48.184;11.510;2023-07-02T11:42:43;9.27;;;6.53;;
7661;SDS011;30314;48.184;11.510;2023-07-02T11:45:10;14.20;;;8.47;;
7661;SDS011;30314;48.184;11.510;2023-07-02T11:47:37;18.03;;;8.87;;
7661;SDS011;30314;48.184;11.510;2023-07-02T11:50:05;15.23;;;8.53;;
7661;SDS011;30314;48.184;11.510;2023-07-02T11:52:50;13.80;;;7.80;;
7661;SDS011;30314;48.184;11.510;2023-07-02T11:55:16;14.20;;;8.23;;
7661;SDS011;30314;48.184;11.510;2023-07-02T11:57:43;15.90;;;8.80;;
7661;SDS011;30314;48.184;11.510;2023-07-02T12:00:10;11.83;;;7.70;;
7661;SDS011;30314;48.184;11.510;2023-07-02T12:02:37;19.67;;;9.80;;
7661;SDS011;30314;48.184;11.510;2023-07-02T12:05:04;12.07;;;7.20;;
7661;SDS011;30314;48.184;11.510;2023-07-02T12:07:35;14.83;;;8.53;;
7661;SDS011;30314;48.184;11.510;2023-07-02T12:10:01;14.73;;;9.30;;
7661;SDS011;30314;48.184;11.510;2023-07-02T12:12:28;13.93;;;7.97;;
7661;SDS011;30314;48.184;11.510;2023-07-02T12:14:55;16.93;;;9.10;;
7661;SDS011;30314;48.184;11.510;2023-07-02T12:17:21;15.40;;;9.20;;
7661;SDS011;30314;48.184;11.510;2023-07-02T12:19:48;18.50;;;8.40;;
7661;SDS011;30314;48.184;11.510;2023-07-02T12:22:16;15.60;;;9.20;;
7661;SDS011;30314;48.184;11.510;2023-07-02T12:24:44;11.63;;;8.30;;
7661;SDS011;30314;48.184;11.510;2023-07-02T12:27:11;17.63;;;9.27;;
7661;SDS011;30314;48.184;11.510;2023-07-02T12:29:37;13.97;;;9.07;;
7661;SDS011;30314;48.184;11.510;2023-07-02T12:32:04;15.17;;;9.77;;
7661;SDS011;30314;48.184;11.510;2023-07-02T12:34:31;15.03;;;9.60;;
7661;SDS011;30314;48.184;11.510;2023-07-02T12:36:58;15.40;;;10.47;;
7661;SDS011;30314;48.184;11.510;2023-07-02T12:39:25;16.80;;;10.20;;
7661;SDS011;30314;48.184;11.510;2023-07-02T12:41:51;19.80;;;9.80;;
7661;SDS011;30314;48.184;11.510;2023-07-02T12:44:18;19.87;;;10.77;;
7661;SDS011;30314;48.184;11.510;2023-07-02T12:46:45;18.93;;;9.63;;
7661;SDS011;30314;48.184;11.510;2023-07-02T12:49:12;18.57;;;10.00;;
7661;SDS011;30314;48.184;11.510;2023-07-02T12:51:39;20.13;;;11.20;;
7661;SDS011;30314;48.184;11.510;2023-07-02T12:54:05;23.27;;;12.03;;
7661;SDS011;30314;48.184;11.510;2023-07-02T12:56:32;16.20;;;11.43;;
7661;SDS011;30314;48.184;11.510;2023-07-02T12:58:59;17.33;;;11.63;;
7661;SDS011;30314;48.184;11.510;2023-07-02T13:01:25;17.53;;;10.40;;
7661;SDS011;30314;48.184;11.510;2023-07-02T13:03:52;17.67;;;10.73;;
7661;SDS011;30314;48.184;11.510;2023-07-02T13:06:18;16.93;;;12.27;;
7661;SDS011;30314;48.184;11.510;2023-07-02T13:08:45;21.73;;;11.77;;
7661;SDS011;30314;48.184;11.510;2023-07-02T13:11:12;20.80;;;11.50;;
7661;SDS011;30314;48.184;11.510;2023-07-02T13:13:38;18.47;;;11.17;;
7661;SDS011;30314;48.184;11.510;2023-07-02T13:16:05;18.00;;;11.07;;
7661;SDS011;30314;48.184;11.510;2023-07-02T13:18:32;16.67;;;11.17;;
7661;SDS011;30314;48.184;11.510;2023-07-02T13:20:58;20.67;;;11.63;;
7661;SDS011;30314;48.184;11.510;2023-07-02T13:23:25;21.30;;;12.53;;
7661;SDS011;30314;48.184;11.510;2023-07-02T13:25:51;19.23;;;12.00;;
7661;SDS011;30314;48.184;11.510;2023-07-02T13:28:18;21.23;;;12.37;;
7661;SDS011;30314;48.184;11.510;2023-07-02T13:30:47;21.13;;;12.47;;
7661;SDS011;30314;48.184;11.510;2023-07-02T13:33:14;21.40;;;13.20;;
7661;SDS011;30314;48.184;11.510;2023-07-02T13:35:41;21.73;;;12.60;;
7661;SDS011;30314;48.184;11.510;2023-07-02T13:38:10;18.13;;;12.07;;
7661;SDS011;30314;48.184;11.510;2023-07-02T13:40:36;19.27;;;13.17;;
7661;SDS011;30314;48.184;11.510;2023-07-02T13:43:03;23.20;;;12.47;;
7661;SDS011;30314;48.184;11.510;2023-07-02T13:45:29;21.90;;;12.70;;
7661;SDS011;30314;48.184;11.510;2023-07-02T13:47:56;24.33;;;12.20;;
7661;SDS011;30314;48.184;11.510;2023-07-02T13:50:22;20.17;;;13.57;;
7661;SDS011;30314;48.184;11.510;2023-07-02T13:52:49;21.57;;;12.23;;
7661;SDS011;30314;48.184;11.510;2023-07-02T13:55:16;19.67;;;11.87;;
7661;SDS011;30314;48.184;11.510;2023-07-02T13:57:42;23.70;;;12.83;;
7661;SDS011;30314;48.184;11.510;2023-07-02T14:00:09;24.90;;;13.97;;
7661;SDS011;30314;48.184;11.510;2023-07-02T14:02:36;24.70;;;14.00;;
7661;SDS011;30314;48.184;11.510;2023-07-02T14:05:03;22.63;;;14.50;;
7661;SDS011;30314;48.184;11.510;2023-07-02T14:07:30;24.43;;;12.83;;
7661;SDS011;30314;48.184;11.510;2023-07-02T14:09:57;25.73;;;14.00;;
7661;SDS011;30314;48.184;11.510;2023-07-02T14:12:23;22.03;;;12.13;;
7661;SDS011;30314;48.184;11.510;2023-07-02T14:14:50;24.10;;;13.20;;
7661;SDS011;30314;48.184;11.510;2023-07-02T14:17:17;22.93;;;12.20;;
7661;SDS011;30314;48.184;11.510;2023-07-02T14:19:43;24.20;;;13.47;;
7661;SDS011;30314;48.184;11.510;2023-07-02T14:22:10;25.13;;;15.30;;
7661;SDS011;30314;48.184;11.510;2023-07-02T14:24:37;22.03;;;14.40;;
7661;SDS011;30314;48.184;11.510;2023-07-02T14:27:04;23.03;;;14.87;;
7661;SDS011;30314;48.184;11.510;2023-07-02T14:29:31;23.37;;;14.40;;
7661;SDS011;30314;48.184;11.510;2023-07-02T14:31:58;23.40;;;14.43;;
7661;SDS011;30314;48.184;11.510;2023-07-02T14:34:24;27.17;;;15.33;;
7661;SDS011;30314;48.184;11.510;2023-07-02T14:36:51;27.03;;;13.87;;
7661;SDS011;30314;48.184;11.510;2023-07-02T14:39:18;21.47;;;13.27;;
7661;SDS011;30314;48.184;11.510;2023-07-02T14:41:44;26.60;;;15.27;;
7661;SDS011;30314;48.184;11.510;2023-07-02T14:44:11;21.57;;;14.30;;
7661;SDS011;30314;48.184;11.510;2023-07-02T14:46:37;26.63;;;15.07;;
7661;SDS011;30314;48.184;11.510;2023-07-02T14:49:04;29.33;;;15.57;;
7661;SDS011;30314;48.184;11.510;2023-07-02T14:51:31;27.63;;;16.10;;
7661;SDS011;30314;48.184;11.510;2023-07-02T14:53:57;32.13;;;15.10;;
7661;SDS011;30314;48.184;11.510;2023-07-02T14:56:25;24.40;;;15.70;;
7661;SDS011;30314;48.184;11.510;2023-07-02T14:58:52;22.87;;;14.40;;
7661;SDS011;30314;48.184;11.510;2023-07-02T15:01:18;28.03;;;15.50;;